Time;durP1;ratioP1;P1;durP2;ratioP2;P2;SDS_P1;SDS_P2;PMS_P1;PMS_P2;Temp;Humidity;BMP_temperature;BMP_pressure;BME280_temperature;BME280_humidity;BME280_pressure;Samples;Min_cycle;Max_cycle;Signal;HPM_P1;HPM_P2
2021/01/16 00:01:02;;;;;;;69.75;31.20;;;;;;;-7.62;55.83;94028.30;1720753;83;21172;-61
2021/01/16 00:03:30;;;;;;;54.90;28.60;;;;;;;-7.68;55.71;94025.13;1720744;83;21353;-60
2021/01/16 00:06:00;;;;;;;57.88;29.82;;;;;;;-7.73;55.98;94032.66;1720647;83;21605;-60
2021/01/16 00:08:28;;;;;;;50.28;27.27;;;;;;;-7.76;56.07;94029.33;1720742;83;21102;-60
2021/01/16 00:10:58;;;;;;;39.60;23.35;;;;;;;-7.72;56.26;94034.20;1720744;81;21070;-61
2021/01/16 00:13:33;;;;;;;48.28;25.12;;;;;;;-7.65;56.03;94039.67;1720840;82;21491;-61
2021/01/16 00:16:00;;;;;;;63.70;32.48;;;;;;;-7.58;56.05;94037.14;1720768;83;22112;-60
2021/01/16 00:18:28;;;;;;;47.48;24.77;;;;;;;-7.44;55.86;94029.42;1720671;83;21138;-63
2021/01/16 00:20:58;;;;;;;59.77;29.92;;;;;;;-7.40;56.24;94034.26;1720835;83;21082;-61
2021/01/16 00:23:28;;;;;;;115.05;54.03;;;;;;;-7.25;56.06;94026.73;1720832;83;21499;-62
2021/01/16 00:25:56;;;;;;;111.05;50.23;;;;;;;-7.10;55.92;94036.02;1720793;82;21467;-61
2021/01/16 00:28:28;;;;;;;109.80;51.05;;;;;;;-6.92;55.79;94031.19;1720721;83;21208;-61
2021/01/16 00:31:00;;;;;;;119.25;53.80;;;;;;;-6.75;55.51;94029.39;1720794;83;21166;-62
2021/01/16 00:33:30;;;;;;;124.78;55.73;;;;;;;-6.70;55.37;94026.98;1720754;83;21074;-61
2021/01/16 00:35:59;;;;;;;96.95;48.10;;;;;;;-6.80;55.39;94032.36;1720696;83;21087;-61
2021/01/16 00:38:29;;;;;;;96.15;44.23;;;;;;;-6.83;55.82;94026.95;1733292;82;21494;-60
2021/01/16 00:40:57;;;;;;;101.65;45.38;;;;;;;-6.78;55.84;94027.43;1704380;84;21373;-59
2021/01/16 00:43:26;;;;;;;107.60;48.33;;;;;;;-6.76;55.68;94037.20;1737053;82;21172;-60
2021/01/16 00:45:54;;;;;;;112.95;47.80;;;;;;;-6.77;55.72;94038.33;1737105;82;21141;-60
2021/01/16 00:48:23;;;;;;;113.95;52.23;;;;;;;-6.70;55.72;94035.77;1706133;83;21174;-60
2021/01/16 00:50:55;;;;;;;150.32;64.42;;;;;;;-6.59;55.56;94035.95;1737050;82;21172;-60
2021/01/16 00:53:25;;;;;;;152.43;66.28;;;;;;;-6.56;55.40;94042.70;1736733;82;21379;-60
2021/01/16 00:55:56;;;;;;;150.50;67.87;;;;;;;-6.54;55.48;94039.09;1706307;84;22225;-59
2021/01/16 00:58:29;;;;;;;151.63;70.20;;;;;;;-6.52;55.49;94040.09;1737071;81;21109;-60
2021/01/16 01:00:58;;;;;;;169.67;74.40;;;;;;;-6.57;55.60;94034.47;1736774;82;21102;-60
2021/01/16 01:03:28;;;;;;;192.68;77.85;;;;;;;-6.64;55.71;94029.02;1707716;83;21087;-60
2021/01/16 01:05:56;;;;;;;174.95;76.97;;;;;;;-6.75;55.93;94032.61;1737062;82;21317;-60
2021/01/16 01:08:29;;;;;;;167.75;73.02;;;;;;;-6.91;56.07;94036.73;1737100;82;21604;-60
2021/01/16 01:10:57;;;;;;;162.60;72.58;;;;;;;-6.97;56.31;94032.83;1706282;84;21087;-61
2021/01/16 01:13:26;;;;;;;124.92;54.27;;;;;;;-6.97;56.72;94028.61;1737150;82;21595;-61
2021/01/16 01:15:54;;;;;;;94.60;41.58;;;;;;;-6.83;56.56;94029.07;1737104;82;21707;-61
2021/01/16 01:18:23;;;;;;;73.72;36.58;;;;;;;-6.78;56.41;94029.31;1706130;82;21182;-63
2021/01/16 01:20:53;;;;;;;54.48;29.20;;;;;;;-6.71;56.04;94016.09;1736979;81;21140;-60
2021/01/16 01:23:21;;;;;;;51.63;27.00;;;;;;;-6.68;55.72;94017.47;1718366;83;21160;-59
2021/01/16 01:25:49;;;;;;;38.45;19.70;;;;;;;-6.62;55.64;94014.72;1718317;82;21110;-61
2021/01/16 01:28:18;;;;;;;26.45;17.57;;;;;;;-6.40;55.29;94012.59;1718349;82;21581;-62
2021/01/16 01:30:48;;;;;;;26.52;15.90;;;;;;;-6.29;54.81;94016.77;1718409;83;21082;-60
2021/01/16 01:33:17;;;;;;;42.65;21.87;;;;;;;-6.18;54.56;94019.80;1718282;83;21094;-60
2021/01/16 01:35:45;;;;;;;61.13;30.52;;;;;;;-6.10;54.24;94014.77;1718333;83;21141;-60
2021/01/16 01:38:20;;;;;;;75.92;33.80;;;;;;;-6.07;53.98;94014.05;1715161;83;21134;-60
2021/01/16 01:40:48;;;;;;;49.85;25.62;;;;;;;-6.20;54.02;94018.05;1712837;83;21079;-60
2021/01/16 01:43:17;;;;;;;43.63;24.92;;;;;;;-6.27;54.30;94020.63;1725839;83;21363;-60
2021/01/16 01:45:45;;;;;;;53.73;29.82;;;;;;;-6.22;54.20;94008.28;1725811;82;21137;-60
2021/01/16 01:48:14;;;;;;;56.18;29.85;;;;;;;-6.15;54.37;94008.38;1725829;83;21547;-61
2021/01/16 01:50:43;;;;;;;40.28;22.25;;;;;;;-6.02;54.20;94005.70;1725800;83;21125;-60
2021/01/16 01:53:13;;;;;;;30.37;18.73;;;;;;;-5.91;53.72;94003.95;1725941;83;21554;-61
2021/01/16 01:55:42;;;;;;;25.92;15.43;;;;;;;-5.84;53.71;94005.38;1725775;83;21412;-61
2021/01/16 01:58:12;;;;;;;24.85;15.23;;;;;;;-5.75;53.33;94006.42;1724177;83;21173;-59
2021/01/16 02:00:41;;;;;;;25.20;15.93;;;;;;;-5.76;53.35;93998.94;1699631;83;21146;-61
2021/01/16 02:03:11;;;;;;;36.95;20.80;;;;;;;-5.68;53.41;93995.23;1725891;81;21086;-60
2021/01/16 02:05:39;;;;;;;42.33;22.70;;;;;;;-5.50;52.91;93994.11;1725847;83;21082;-61
2021/01/16 02:08:08;;;;;;;37.33;20.82;;;;;;;-5.40;52.62;93996.91;1725808;82;21160;-60
2021/01/16 02:10:37;;;;;;;59.93;26.73;;;;;;;-5.38;52.46;93994.63;1725743;81;21113;-60
2021/01/16 02:13:05;;;;;;;66.00;29.92;;;;;;;-5.52;52.79;93989.68;1725814;83;21146;-61
2021/01/16 02:16:03;;;;;;;92.33;36.75;;;;;;;-5.47;52.84;93987.46;1725766;83;21125;-61
2021/01/16 02:18:37;;;;;;;77.92;33.60;;;;;;;-5.47;52.91;93988.02;1725866;83;21157;-62
2021/01/16 02:21:07;;;;;;;59.85;29.23;;;;;;;-5.51;53.00;93987.99;1725798;83;21380;-59
2021/01/16 02:23:50;;;;;;;62.27;31.80;;;;;;;-5.51;53.25;93987.99;1725847;81;21090;-60
2021/01/16 02:26:54;;;;;;;70.47;33.53;;;;;;;-5.38;53.17;93994.63;1725277;81;21446;-60
2021/01/16 02:29:22;;;;;;;;;;;;;;;-5.28;52.83;93990.56;1728343;83;21156;-60
2021/01/16 02:32:04;;;;;;;45.17;24.12;;;;;;;-5.37;52.84;94002.91;1725847;81;20237;-60
2021/01/16 02:34:40;;;;;;;65.95;30.60;;;;;;;-5.40;53.03;93998.83;1725889;82;22130;-61
2021/01/16 02:37:41;;;;;;;54.90;26.52;;;;;;;-5.36;53.02;93991.05;1725792;83;21502;-61
2021/01/16 02:40:23;;;;;;;50.20;25.55;;;;;;;-5.36;52.80;93992.39;1725868;83;21608;-61
2021/01/16 02:43:31;;;;;;;49.83;25.40;;;;;;;-5.57;53.21;93998.80;1725823;81;21161;-60
2021/01/16 02:46:40;;;;;;;51.20;25.82;;;;;;;-5.68;53.43;93991.22;1725758;83;21168;-61
2021/01/16 02:49:48;;;;;;;64.92;30.77;;;;;;;-5.78;53.58;93996.47;1725811;82;21354;-61
2021/01/16 02:52:19;;;;;;;70.62;31.97;;;;;;;-5.81;54.18;94000.64;1725766;83;21113;-60
2021/01/16 02:54:47;;;;;;;70.00;31.95;;;;;;;-5.68;54.01;93988.55;1725824;83;21162;-61
2021/01/16 02:57:15;;;;;;;68.72;33.48;;;;;;;-5.68;54.00;93992.56;1725768;83;21170;-60
2021/01/16 02:59:47;;;;;;;64.07;30.92;;;;;;;-5.71;54.14;93992.50;1725792;83;21149;-61
2021/01/16 03:02:17;;;;;;;55.75;27.80;;;;;;;-5.73;54.31;93988.88;1725814;81;21442;-61
2021/01/16 03:04:45;;;;;;;44.58;23.92;;;;;;;-5.72;54.31;93990.41;1725672;82;21145;-59
2021/01/16 03:07:18;;;;;;;36.40;19.32;;;;;;;-5.77;54.60;93996.06;1725822;83;21201;-60
2021/01/16 03:09:46;;;;;;;30.77;18.87;;;;;;;-5.73;54.55;94000.92;1725916;83;21090;-61
2021/01/16 03:12:15;;;;;;;31.25;19.25;;;;;;;-5.68;54.50;93991.22;1725801;83;21173;-60
2021/01/16 03:14:49;;;;;;;27.87;17.30;;;;;;;-5.68;54.68;93993.90;1699526;83;21388;-60
2021/01/16 03:17:17;;;;;;;33.30;18.42;;;;;;;-5.66;54.74;94002.34;1725726;83;21106;-59
2021/01/16 03:19:47;;;;;;;26.20;16.12;;;;;;;-5.66;54.91;94003.67;1725852;83;21582;-60
2021/01/16 03:22:28;;;;;;;27.95;15.83;;;;;;;-5.65;54.71;94008.45;1725767;83;21144;-60
2021/01/16 03:24:57;;;;;;;24.77;14.43;;;;;;;-5.74;54.92;94007.41;1725852;81;21066;-61
2021/01/16 03:27:26;;;;;;;22.02;14.00;;;;;;;-5.75;55.03;93996.47;1725846;83;22387;-60
2021/01/16 03:29:56;;;;;;;22.27;13.55;;;;;;;-5.60;54.71;93997.44;1725730;83;21137;-61
2021/01/16 03:32:24;;;;;;;28.98;16.80;;;;;;;-5.54;54.37;93995.42;1725744;83;21106;-61
2021/01/16 03:34:53;;;;;;;62.35;29.40;;;;;;;-5.53;54.68;93996.96;1725786;83;21618;-60
2021/01/16 03:37:21;;;;;;;77.17;36.68;;;;;;;-5.49;54.83;93992.41;1725756;83;21106;-60
2021/01/16 03:39:50;;;;;;;98.78;48.30;;;;;;;-5.59;54.87;93993.04;1725736;83;21193;-60
2021/01/16 03:42:18;;;;;;;90.62;40.55;;;;;;;-5.77;55.31;93999.32;1725729;83;21917;-60
2021/01/16 03:44:47;;;;;;;76.12;36.05;;;;;;;-5.79;55.47;93993.59;1725924;82;21190;-60
2021/01/16 03:47:15;;;;;;;76.87;37.55;;;;;;;-5.78;55.44;94000.48;1725936;83;21141;-60
2021/01/16 03:49:43;;;;;;;80.15;39.00;;;;;;;-5.83;55.61;93991.44;1725936;82;21165;-61
2021/01/16 03:52:12;;;;;;;82.12;41.33;;;;;;;-5.80;56.22;93992.05;1725917;83;21356;-61
2021/01/16 03:54:40;;;;;;;81.90;41.35;;;;;;;-5.66;56.34;93990.28;1698426;83;21132;-61
2021/01/16 03:57:09;;;;;;;83.72;40.38;;;;;;;-5.45;56.08;93997.82;1725823;83;21137;-61
2021/01/16 03:59:38;;;;;;;87.17;40.85;;;;;;;-5.28;55.97;93998.59;1725924;83;21085;-61
2021/01/16 04:02:06;;;;;;;70.32;35.65;;;;;;;-5.14;55.27;93990.14;1725929;83;21073;-59
2021/01/16 04:04:35;;;;;;;65.42;34.98;;;;;;;-5.13;54.87;93989.00;1725908;83;21200;-60
2021/01/16 04:07:05;;;;;;;79.25;41.08;;;;;;;-5.33;55.15;93990.86;1725800;83;21561;-60
2021/01/16 04:09:33;;;;;;;76.67;41.37;;;;;;;-5.49;55.74;93995.09;1725849;81;21137;-61
2021/01/16 04:12:02;;;;;;;73.72;40.55;;;;;;;-5.51;55.91;93995.24;1725900;81;21192;-62
2021/01/16 04:14:30;;;;;;;117.05;54.98;;;;;;;-5.41;56.29;93993.27;1725901;83;21071;-62
2021/01/16 04:16:59;;;;;;;108.70;54.42;;;;;;;-5.29;55.94;93992.45;1725845;81;21372;-60
2021/01/16 04:19:27;;;;;;;108.55;56.70;;;;;;;-5.20;55.85;93994.27;1725809;83;22054;-61
2021/01/16 04:21:56;;;;;;;108.40;56.20;;;;;;;-5.14;55.67;93990.14;1725857;83;21141;-61
2021/01/16 04:24:24;;;;;;;110.05;56.58;;;;;;;-5.08;55.40;93990.00;1725871;81;21089;-60
2021/01/16 04:26:53;;;;;;;98.15;50.30;;;;;;;-5.16;55.35;94003.89;1725908;83;21137;-60
2021/01/16 04:29:21;;;;;;;105.27;53.35;;;;;;;-5.30;55.42;93997.03;1726035;83;22096;-61
2021/01/16 04:31:50;;;;;;;128.55;59.88;;;;;;;-5.41;55.67;94000.72;1725919;82;21017;-61
2021/01/16 04:34:20;;;;;;;124.82;59.55;;;;;;;-5.42;55.99;94000.52;1725880;83;21070;-59
2021/01/16 04:36:48;;;;;;;88.45;46.40;;;;;;;-5.42;56.20;93999.77;1725829;83;21093;-61
2021/01/16 04:39:17;;;;;;;62.83;34.13;;;;;;;-5.44;56.50;93997.44;1725756;83;21146;-59
2021/01/16 04:41:47;;;;;;;63.75;32.10;;;;;;;-5.39;56.61;93997.69;1725869;81;21352;-61
2021/01/16 04:44:15;;;;;;;68.15;34.92;;;;;;;-5.24;56.57;94002.84;1725831;83;21182;-60
2021/01/16 04:46:44;;;;;;;156.47;76.55;;;;;;;-5.07;56.19;94000.92;1725852;83;21121;-61
2021/01/16 04:49:12;;;;;;;93.47;46.23;;;;;;;-4.92;55.98;94007.98;1725836;83;21201;-60
2021/01/16 04:51:44;;;;;;;69.07;33.55;;;;;;;-4.96;55.83;94009.27;1725875;83;21085;-61
2021/01/16 04:54:16;;;;;;;69.62;35.88;;;;;;;-5.22;55.90;94007.27;1726140;82;21204;-61
2021/01/16 04:56:46;;;;;;;77.15;39.15;;;;;;;-5.45;56.33;94003.94;1725918;83;21157;-61
2021/01/16 04:59:15;;;;;;;74.65;37.55;;;;;;;-5.54;56.72;94007.48;1725909;81;21141;-61
2021/01/16 05:01:45;;;;;;;91.42;44.53;;;;;;;-5.58;57.02;94014.67;1725827;83;21205;-60
2021/01/16 05:04:13;;;;;;;102.30;48.63;;;;;;;-5.65;57.48;94010.58;1698650;83;21150;-61
2021/01/16 05:06:42;;;;;;;79.07;41.20;;;;;;;-5.65;57.24;94012.47;1725862;83;21236;-61
2021/01/16 05:09:10;;;;;;;62.27;33.30;;;;;;;-5.66;57.36;94017.63;1725797;82;21101;-61
2021/01/16 05:11:43;;;;;;;65.22;34.35;;;;;;;-5.71;57.55;94006.68;1725822;83;21483;-61
2021/01/16 05:14:19;;;;;;;53.25;27.48;;;;;;;-5.66;57.69;94010.92;1699485;81;21074;-61
2021/01/16 05:16:56;;;;;;;61.95;31.82;;;;;;;-5.53;57.50;94003.66;1725848;82;21097;-60
2021/01/16 05:19:31;;;;;;;66.55;34.27;;;;;;;-5.50;57.31;94005.61;1725862;81;21373;-61
2021/01/16 05:22:00;;;;;;;59.23;31.57;;;;;;;-5.53;57.58;93999.64;1725826;83;21078;-60
2021/01/16 05:24:28;;;;;;;52.38;29.00;;;;;;;-5.60;57.57;94003.55;1725723;81;21074;-60
2021/01/16 05:27:02;;;;;;;52.62;28.55;;;;;;;-5.65;57.53;94005.22;1725820;83;21070;-60
2021/01/16 05:29:33;;;;;;;46.53;28.40;;;;;;;-5.58;57.88;94008.56;1725881;83;21066;-61
2021/01/16 05:32:03;;;;;;;57.45;27.95;;;;;;;-5.30;57.65;94005.66;1725872;83;21197;-61
2021/01/16 05:34:33;;;;;;;50.52;27.30;;;;;;;-5.05;57.08;94003.45;1725806;83;21176;-61
2021/01/16 05:37:02;;;;;;;42.93;25.48;;;;;;;-4.93;56.58;94007.20;1725794;82;21098;-60
2021/01/16 05:39:32;;;;;;;56.55;28.42;;;;;;;-4.88;56.68;93998.05;1723904;81;21463;-60
2021/01/16 05:42:05;;;;;;;90.92;44.18;;;;;;;-4.68;56.36;94000.73;1722003;83;21082;-61
2021/01/16 05:44:36;;;;;;;97.37;47.08;;;;;;;-4.60;55.91;94005.05;1721988;83;21339;-61
2021/01/16 05:47:05;;;;;;;69.27;35.58;;;;;;;-4.79;55.77;94002.56;1721994;83;21170;-62
2021/01/16 05:49:33;;;;;;;63.48;32.00;;;;;;;-4.97;55.97;94015.02;1721909;82;21117;-61
2021/01/16 05:52:07;;;;;;;67.30;35.05;;;;;;;-5.21;56.46;94011.48;1721944;83;21209;-61
2021/01/16 05:54:35;;;;;;;77.72;35.75;;;;;;;-5.23;56.94;94015.10;1722078;83;21114;-61
2021/01/16 05:57:05;;;;;;;69.70;35.63;;;;;;;-5.14;57.04;94019.63;1721912;83;21452;-61
2021/01/16 05:59:33;;;;;;;82.67;40.65;;;;;;;-5.13;56.99;94019.82;1676724;83;21129;-61
2021/01/16 06:02:03;;;;;;;90.05;46.13;;;;;;;-5.12;57.18;94020.78;1699686;82;21074;-61
2021/01/16 06:04:33;;;;;;;102.87;54.20;;;;;;;-5.00;57.53;94017.11;1721931;83;21188;-61
2021/01/16 06:07:06;;;;;;;137.95;70.12;;;;;;;-4.86;57.29;94015.89;1722118;83;21554;-61
2021/01/16 06:09:36;;;;;;;131.87;64.85;;;;;;;-4.73;56.96;94021.98;1722068;83;21173;-60
2021/01/16 06:12:07;;;;;;;121.75;64.67;;;;;;;-4.69;56.62;94012.05;1721917;83;21585;-61
2021/01/16 06:14:42;;;;;;;104.07;50.17;;;;;;;-4.66;56.47;94013.99;1676780;82;21146;-61
2021/01/16 06:17:15;;;;;;;110.40;57.08;;;;;;;-4.68;56.30;94024.87;1698738;84;21106;-61
2021/01/16 06:19:50;;;;;;;108.95;56.28;;;;;;;-4.87;56.54;94019.16;1711126;82;21150;-61
2021/01/16 06:22:18;;;;;;;95.40;51.83;;;;;;;-4.93;57.07;94021.19;1711006;83;22281;-61
2021/01/16 06:24:50;;;;;;;110.57;53.98;;;;;;;-4.87;56.83;94025.07;1710773;82;21122;-61
2021/01/16 06:27:25;;;;;;;129.95;66.67;;;;;;;-4.92;57.10;94020.05;1711048;82;21107;-61
2021/01/16 06:30:01;;;;;;;118.10;58.15;;;;;;;-4.84;57.12;94029.70;1710911;83;21162;-62
2021/01/16 06:32:30;;;;;;;122.37;59.67;;;;;;;-4.86;56.81;94029.30;1711044;83;21075;-62
2021/01/16 06:35:10;;;;;;;136.75;65.97;;;;;;;-4.96;56.87;94043.38;1710902;83;21518;-63
2021/01/16 06:37:47;;;;;;;153.57;80.42;;;;;;;-5.00;57.00;94035.88;1710832;83;21604;-61
2021/01/16 06:40:31;;;;;;;147.00;69.40;;;;;;;-4.96;57.04;94043.38;1710663;82;21134;-61
2021/01/16 06:43:00;;;;;;;143.43;68.92;;;;;;;-4.98;57.15;94045.66;1698769;84;21078;-62
2021/01/16 06:45:29;;;;;;;134.18;66.42;;;;;;;-4.98;57.33;94047.00;1710901;83;21110;-61
2021/01/16 06:47:59;;;;;;;141.77;68.75;;;;;;;-4.87;57.18;94051.33;1710855;82;21375;-61
2021/01/16 06:50:28;;;;;;;121.22;62.30;;;;;;;-4.75;57.11;94035.55;1721393;82;21110;-61
2021/01/16 06:52:58;;;;;;;120.85;57.88;;;;;;;-4.63;56.94;94044.69;1748137;81;21090;-62
2021/01/16 06:55:27;;;;;;;100.18;52.90;;;;;;;-4.46;56.44;94042.16;1728185;81;21162;-61
2021/01/16 06:57:55;;;;;;;93.60;50.28;;;;;;;-4.39;56.12;94044.89;1710790;83;21574;-62
2021/01/16 07:00:25;;;;;;;98.52;52.95;;;;;;;-4.32;55.91;94050.90;1710821;82;21512;-64
2021/01/16 07:02:53;;;;;;;97.25;54.48;;;;;;;-4.18;55.37;94047.78;1715373;81;21586;-61
2021/01/16 07:05:22;;;;;;;94.07;53.08;;;;;;;-4.10;55.00;94039.97;1732257;81;21157;-62
2021/01/16 07:07:51;;;;;;;78.95;41.70;;;;;;;-4.06;54.74;94040.01;1729777;81;21066;-61
2021/01/16 07:10:28;;;;;;;83.40;46.33;;;;;;;-4.11;54.42;94045.70;1733072;82;21127;-60
2021/01/16 07:12:53;;;;;;;84.15;44.58;;;;;;;-4.26;54.34;94045.41;1757159;81;21224;-62
2021/01/16 07:15:23;;;;;;;84.87;47.05;;;;;;;-4.39;54.52;94049.50;1756009;81;21491;-62
2021/01/16 07:17:53;;;;;;;77.65;40.15;;;;;;;-4.42;54.55;94054.27;1755270;81;21126;-62
2021/01/16 07:20:21;;;;;;;58.87;33.50;;;;;;;-4.47;53.77;94054.03;1744185;81;21169;-61
2021/01/16 07:22:51;;;;;;;42.05;25.55;;;;;;;-4.55;53.91;94057.80;1694083;83;21134;-62
2021/01/16 07:25:20;;;;;;;43.98;26.33;;;;;;;-4.57;53.71;94058.72;1745469;81;21429;-62
2021/01/16 07:27:49;;;;;;;42.35;26.57;;;;;;;-4.63;53.71;94058.86;1742365;81;21578;-61
2021/01/16 07:30:18;;;;;;;32.80;22.55;;;;;;;-4.71;53.51;94061.28;1705901;81;21593;-61
2021/01/16 07:32:49;;;;;;;46.10;28.32;;;;;;;-4.74;53.53;94064.70;1717690;83;21114;-61
2021/01/16 07:35:24;;;;;;;43.68;28.45;;;;;;;-4.77;53.45;94072.11;1733362;81;21503;-62
2021/01/16 07:37:53;;;;;;;48.95;28.50;;;;;;;-4.80;53.29;94073.44;1737656;82;21216;-63
2021/01/16 07:40:28;;;;;;;41.13;27.32;;;;;;;-4.85;53.42;94083.13;1760225;80;21138;-63
2021/01/16 07:43:04;;;;;;;40.48;25.10;;;;;;;-4.92;53.55;94077.70;1760190;79;21148;-60
2021/01/16 07:45:39;;;;;;;37.23;22.82;;;;;;;-4.86;53.51;94068.97;1736991;81;21220;-59
2021/01/16 07:48:08;;;;;;;36.23;22.15;;;;;;;-4.73;52.95;94074.84;1745926;79;21118;-61
2021/01/16 07:50:37;;;;;;;54.08;31.65;;;;;;;-4.80;52.77;94065.39;1762770;79;21171;-61
2021/01/16 07:53:08;;;;;;;49.65;27.55;;;;;;;-4.84;52.89;94075.28;1768111;79;21158;-59
2021/01/16 07:55:41;;;;;;;56.80;31.55;;;;;;;-4.81;52.72;94067.88;1760494;79;21185;-59
2021/01/16 07:58:25;;;;;;;63.10;33.25;;;;;;;-4.75;52.71;94074.44;1756803;80;21618;-66
2021/01/16 08:01:18;;;;;;;51.13;26.25;;;;;;;-4.74;52.93;94076.77;1754379;79;21743;-59
2021/01/16 08:04:26;;;;;;;58.25;33.78;;;;;;;-4.79;52.90;94077.66;1760881;81;21196;-58
2021/01/16 08:07:05;;;;;;;50.70;26.50;;;;;;;-4.85;53.04;94075.88;1744165;82;21134;-59
2021/01/16 08:09:54;;;;;;;51.55;28.25;;;;;;;-4.74;52.92;94081.34;1755477;81;21151;-58
2021/01/16 08:12:27;;;;;;;28.07;19.82;;;;;;;-4.59;52.64;94079.02;1756841;81;21178;-58
2021/01/16 08:14:55;;;;;;;35.17;20.80;;;;;;;-4.36;52.53;94075.60;1725016;82;21115;-58
2021/01/16 08:17:35;;;;;;;41.95;25.10;;;;;;;-4.19;52.12;94081.70;1754168;81;22162;-59
2021/01/16 08:20:27;;;;;;;34.85;20.97;;;;;;;-4.04;52.33;94073.38;1755532;79;21603;-59
2021/01/16 08:22:52;;;;;;;41.37;24.95;;;;;;;-3.83;52.01;94081.63;1732209;81;21070;-60
2021/01/16 08:25:26;;;;;;;51.45;28.25;;;;;;;-3.67;51.70;94075.98;1742902;80;21078;-59
2021/01/16 08:27:58;;;;;;;77.87;36.75;;;;;;;-3.56;51.26;94074.89;1752125;75;21647;-50
2021/01/16 08:30:30;;;;;;;44.53;23.32;;;;;;;-3.59;50.27;94081.58;1708103;82;21206;-48
2021/01/16 08:33:10;;;;;;;50.60;26.35;;;;;;;-3.78;49.73;94078.59;1712341;83;27332;-50
2021/01/16 08:35:48;;;;;;;81.30;39.45;;;;;;;-4.01;49.98;94075.91;1681940;84;21179;-55
2021/01/16 08:38:21;;;;;;;60.80;31.30;;;;;;;-4.15;50.47;94081.16;1653793;85;21163;-55
2021/01/16 08:41:04;;;;;;;47.08;26.52;;;;;;;-4.15;50.54;94081.16;1688200;83;21248;-52
2021/01/16 08:43:46;;;;;;;56.53;30.02;;;;;;;-4.25;50.25;94087.97;1675553;83;21389;-56
2021/01/16 08:46:21;;;;;;;49.88;27.02;;;;;;;-4.47;50.63;94094.28;1672076;83;21210;-50
2021/01/16 08:49:14;;;;;;;51.48;27.75;;;;;;;-4.64;51.02;94095.45;1662585;83;21154;-52
2021/01/16 08:51:42;;;;;;;58.15;32.45;;;;;;;-4.76;51.42;94097.04;1678911;83;21147;-53
2021/01/16 08:54:19;;;;;;;70.85;36.45;;;;;;;-4.76;51.47;94103.75;1691189;83;21242;-53
2021/01/16 08:56:52;;;;;;;57.50;33.95;;;;;;;-4.69;51.30;94102.47;1688141;83;21210;-52
2021/01/16 08:59:33;;;;;;;53.80;28.83;;;;;;;-4.64;51.34;94106.19;1644342;84;21674;-50
2021/01/16 09:02:10;;;;;;;58.87;31.27;;;;;;;-4.56;51.19;94110.48;1689267;83;21518;-53
2021/01/16 09:04:42;;;;;;;34.90;19.07;;;;;;;-4.46;51.16;94101.78;1651186;85;21135;-48
2021/01/16 09:09:59;;;;;;;45.13;30.57;;;;;;;-4.04;50.20;94100.82;1856232;76;27815;-51
2021/01/16 09:12:40;;;;;;;49.33;27.58;;;;;;;-3.89;49.73;94095.19;1840171;78;21160;-51
2021/01/16 09:15:26;;;;;;;35.28;22.25;;;;;;;-3.71;49.66;94092.65;1835036;78;21361;-50
2021/01/16 09:18:13;;;;;;;36.05;22.60;;;;;;;-3.28;49.39;94082.55;1823914;78;21133;-50
2021/01/16 09:20:48;;;;;;;30.48;18.32;;;;;;;-2.79;48.82;94089.52;1839653;78;21113;-49
2021/01/16 09:23:27;;;;;;;48.10;29.30;;;;;;;-2.29;47.98;94085.80;1839275;77;21152;-51
2021/01/16 09:26:10;;;;;;;41.83;25.08;;;;;;;-1.96;47.53;94090.84;1840208;77;21093;-50
2021/01/16 09:28:56;;;;;;;40.78;25.20;;;;;;;-1.55;46.71;94091.44;1794235;78;22299;-53
2021/01/16 09:31:35;;;;;;;42.23;24.43;;;;;;;-1.18;45.79;94078.28;1790800;78;21553;-50
2021/01/16 09:34:20;;;;;;;45.17;26.70;;;;;;;-0.78;45.05;94079.71;1807341;79;21184;-50
2021/01/16 09:36:56;;;;;;;35.23;22.73;;;;;;;-0.38;44.35;94080.50;1803272;79;21152;-51
2021/01/16 09:39:31;;;;;;;33.53;21.45;;;;;;;-0.19;43.22;94078.66;1789403;79;21189;-51
2021/01/16 09:42:07;;;;;;;36.10;22.87;;;;;;;-0.02;42.62;94069.85;1806211;79;21536;-49
2021/01/16 09:44:43;;;;;;;50.85;29.95;;;;;;;0.17;42.48;94073.39;1755335;80;21105;-50
2021/01/16 09:47:32;;;;;;;34.33;22.85;;;;;;;0.62;42.45;94066.82;1796428;79;21599;-51
2021/01/16 09:52:54;;;;;;;27.32;19.15;;;;;;;1.80;40.87;94053.10;1864519;76;22265;-51
2021/01/16 09:55:32;;;;;;;30.97;20.77;;;;;;;1.80;40.22;94054.45;1813875;77;21162;-53
2021/01/16 09:58:02;;;;;;;38.55;22.27;;;;;;;1.91;40.22;94056.42;1830081;78;22026;-50
2021/01/16 10:00:34;;;;;;;35.88;21.68;;;;;;;1.98;40.19;94054.98;1770039;80;21185;-56
2021/01/16 10:03:08;;;;;;;38.60;24.30;;;;;;;1.88;40.11;94049.89;1779910;78;21223;-49
2021/01/16 10:05:41;;;;;;;29.57;19.73;;;;;;;1.68;39.99;94048.22;1767959;80;21186;-49
2021/01/16 10:08:11;;;;;;;28.67;19.23;;;;;;;1.50;40.54;94044.97;1755158;80;21569;-49
2021/01/16 10:10:47;;;;;;;32.42;19.55;;;;;;;1.56;40.60;94038.52;1706373;80;21609;-49
2021/01/16 10:13:32;;;;;;;27.13;18.95;;;;;;;1.77;40.23;94037.66;1761081;80;21114;-48
2021/01/16 10:16:07;;;;;;;26.23;18.67;;;;;;;1.95;39.89;94035.47;1760358;78;21118;-52
2021/01/16 10:18:37;;;;;;;35.17;21.97;;;;;;;2.07;39.65;94037.59;1776473;78;21618;-54
2021/01/16 10:21:10;;;;;;;35.52;23.55;;;;;;;2.15;39.55;94030.91;1765001;79;21114;-51
2021/01/16 10:23:43;;;;;;;44.75;28.60;;;;;;;2.32;39.68;94019.76;1761253;80;21419;-55
2021/01/16 10:26:13;;;;;;;33.20;22.70;;;;;;;2.46;39.23;94029.03;1768709;80;21158;-52
2021/01/16 10:28:55;;;;;;;38.42;26.65;;;;;;;2.45;39.12;94018.00;1729623;80;21599;-51
2021/01/16 10:31:24;;;;;;;41.40;25.75;;;;;;;2.23;38.41;93997.05;1737071;80;21158;-50
2021/01/16 10:34:05;;;;;;;31.40;19.82;;;;;;;1.75;39.34;94015.61;1741112;81;21193;-50
2021/01/16 10:36:33;;;;;;;32.85;20.55;;;;;;;1.31;39.58;94015.80;1737758;82;21920;-53
2021/01/16 10:39:11;;;;;;;44.27;25.30;;;;;;;0.66;38.64;94009.39;1734896;80;21182;-53
2021/01/16 10:41:41;;;;;;;19.37;12.35;;;;;;;0.04;38.56;94006.08;1736107;80;21176;-52
2021/01/16 10:44:14;;;;;;;14.75;10.60;;;;;;;-0.62;38.81;94005.18;1709377;82;21182;-50
2021/01/16 10:46:47;;;;;;;13.43;10.18;;;;;;;-1.08;39.48;94005.20;1743829;81;21055;-51
2021/01/16 10:49:25;;;;;;;12.93;9.23;;;;;;;-1.35;39.65;93993.37;1733050;80;21387;-51
2021/01/16 10:51:57;;;;;;;14.55;9.85;;;;;;;-1.62;39.50;93999.00;1741494;81;21158;-50
2021/01/16 10:54:26;;;;;;;23.25;16.02;;;;;;;-1.77;39.63;93997.48;1715695;82;22203;-52
2021/01/16 10:57:02;;;;;;;19.50;15.45;;;;;;;-1.91;40.69;93994.83;1721625;82;21198;-50
2021/01/16 10:59:38;;;;;;;14.93;11.03;;;;;;;-1.97;40.03;93989.61;1737823;80;21161;-55
2021/01/16 11:02:13;;;;;;;21.97;14.70;;;;;;;-1.94;40.33;93987.48;1708346;82;22488;-52
2021/01/16 11:04:44;;;;;;;15.03;11.55;;;;;;;-1.95;40.45;93987.89;1749225;80;21099;-49
2021/01/16 11:07:28;;;;;;;17.82;11.63;;;;;;;-2.01;40.29;93983.47;1744848;80;21539;-51
2021/01/16 11:10:08;;;;;;;13.50;10.30;;;;;;;-1.96;40.42;93976.92;1709592;81;21186;-50
2021/01/16 11:12:37;;;;;;;25.27;14.10;;;;;;;-2.04;40.17;93985.59;1732935;80;21209;-52
2021/01/16 11:15:29;;;;;;;20.23;13.18;;;;;;;-2.09;40.81;93979.25;1725127;80;21368;-51
2021/01/16 11:18:06;;;;;;;27.10;16.07;;;;;;;-2.11;40.76;93977.49;1861415;75;22398;-50
2021/01/16 11:20:35;;;;;;;12.65;9.90;;;;;;;-2.22;42.12;93969.23;1856271;76;21135;-53
2021/01/16 11:23:19;;;;;;;33.67;28.75;;;;;;;-2.18;41.33;93970.77;1841649;76;21485;-50
2021/01/16 11:25:49;;;;;;;32.33;24.40;;;;;;;-2.13;41.45;93975.77;1777556;79;21224;-51
2021/01/16 11:28:21;;;;;;;12.05;10.48;;;;;;;-2.12;41.91;93970.56;1768422;80;21555;-49
2021/01/16 11:30:54;;;;;;;16.02;11.20;;;;;;;-2.15;41.64;93984.81;1789122;79;21167;-50
2021/01/16 11:33:26;;;;;;;20.20;14.73;;;;;;;-2.24;41.48;93976.36;1791963;79;21214;-53
2021/01/16 11:36:06;;;;;;;20.00;13.90;;;;;;;-2.20;41.37;93977.69;1770388;79;21374;-49
2021/01/16 11:38:45;;;;;;;18.23;13.50;;;;;;;-2.18;41.46;93974.81;1707100;80;21079;-50
2021/01/16 11:41:37;;;;;;;15.03;12.00;;;;;;;-2.03;41.23;93973.66;1743230;80;21143;-51
2021/01/16 11:44:06;;;;;;;15.08;10.10;;;;;;;-2.03;41.75;93970.96;1669369;84;21237;-51
2021/01/16 11:46:34;;;;;;;18.20;14.58;;;;;;;-1.99;41.79;93965.58;1701035;84;21237;-50
2021/01/16 11:49:03;;;;;;;11.12;9.25;;;;;;;-2.09;42.36;93950.97;1710093;79;21392;-50